Latest Coastal Weather Observations for Adele Island

IDW60701

Issued at 10:53 am WST Saturday 5 December 2020 (issued every 10 minutes, with the page automatically refreshed every 10 minutes)

About coastal observations | Map of coastal stations | Coastal observations for WA | Marine services | Other Formats
Station Details ID: 200735 Name: ADELE ISLAND Lat: -15.51 Lon: 123.16 Height: 4.6 m
Data from the previous 72 hours. | See also: Recent months at Adele Island
Date/Time
WST
Wind Sea
Height
m
Swell Vis
km
Cloud Weather Temp
°C
Press
MSL
hPa
Rain since
9am
mm
Dir  Spd
kts
Gust
kts
Height
m
Period
s
Dir
05/10:30am ENE 7 9 - - - - - - - 30.8 1008.7 -
05/10:17am E 6 - - - - - - - - 31.6 1008.7 -
05/10:00am ENE 7 10 - - - - - - - 31.0 1009.0 -
05/09:30am E 7 10 - - - - - - - 30.8 1009.0 -
05/09:17am E 8 - - - - - - - - 30.9 1009.2 -
05/09:00am E 8 10 - - - - - - - 30.9 1009.3 -
05/08:30am ENE 8 10 - - - - - - - 30.4 1009.5 -
05/08:17am E 8 - - - - - - - - 30.2 1009.5 -
05/08:00am ESE 8 10 - - - - - - - 30.0 1009.5 -
05/07:30am CALM 0 3 - - - - - - - 29.8 1009.4 -
05/07:17am CALM 0 - - - - - - - - 30.0 1009.3 -
05/07:00am CALM 0 2 - - - - - - - 29.5 1009.1 -
05/06:30am CALM 0 3 - - - - - - - 29.1 1008.9 -
05/06:17am CALM 0 - - - - - - - - 28.6 1008.6 -
05/06:00am SE 1 4 - - - - - - - 28.0 1008.3 -
05/05:30am SSE 1 8 - - - - - - - 27.6 1008.0 -
05/05:17am ESE 6 - - - - - - - - 27.5 1007.7 -
05/05:00am SSE 8 8 - - - - - - - 27.6 1007.5 -
05/04:30am SSE 8 9 - - - - - - - 27.3 1007.4 -
05/04:17am SSE 6 - - - - - - - - 27.4 1007.2 -
05/04:00am SSE 8 9 - - - - - - - 27.4 1007.4 -
05/03:30am SSE 8 8 - - - - - - - 27.7 1007.3 -
05/03:17am SSE 7 - - - - - - - - 28.2 1007.4 -
05/03:00am SSE 6 7 - - - - - - - 28.6 1007.3 -
05/02:30am SSE 6 7 - - - - - - - 28.5 1007.7 -
05/02:17am S 6 - - - - - - - - 28.9 1007.7 -
05/02:00am SSW 5 6 - - - - - - - 29.0 1007.7 -
05/01:30am S 5 6 - - - - - - - 28.8 1007.9 -
05/01:17am SSW 4 - - - - - - - - 28.9 1008.0 -
05/01:00am SSW 6 7 - - - - - - - 29.0 1008.1 -
05/12:30am SSW 7 9 - - - - - - - 28.9 1008.5 -
05/12:17am SSW 8 - - - - - - - - 28.7 1008.5 -
05/12:00am SSW 8 10 - - - - - - - 28.9 1008.6 -
 
Date/Time
WST
Wind Sea
Height
m
Swell Vis
km
Cloud Weather Temp
°C
Press
MSL
hPa
Rain since
9am
mm
Dir  Spd
kts
Gust
kts
Height
m
Period
s
Dir
04/11:30pm SSW 9 11 - - - - - - - 28.8 1008.7 -
04/11:17pm SSW 9 - - - - - - - - 28.7 1008.8 -
04/11:00pm SW 9 11 - - - - - - - 28.7 1008.8 -
04/10:30pm SW 11 13 - - - - - - - 28.2 1008.8 -
04/10:17pm SW 10 - - - - - - - - 28.6 1008.8 -
04/10:00pm S 9 13 - - - - - - - 26.6 1009.2 -
04/09:46pm SE 15 25 - - - - - - - 26.0 1009.9 -
04/09:30pm ESE 10 19 - - - - - - - 29.2 1010.5 -
04/09:17pm E 10 - - - - - - - - 29.1 1010.3 -
04/09:00pm WNW 9 11 - - - - - - - 29.6 1008.8 -
04/08:30pm WNW 9 11 - - - - - - - 29.5 1008.8 -
04/08:17pm NW 8 - - - - - - - - 29.3 1008.4 -
04/08:00pm WNW 8 10 - - - - - - - 29.5 1008.3 -
04/07:30pm WNW 9 10 - - - - - - - 29.7 1008.1 -
04/07:17pm WNW 8 - - - - - - - - 29.7 1007.6 -
04/07:00pm WNW 8 9 - - - - - - - 29.7 1007.5 -
04/06:30pm NW 7 8 - - - - - - - 29.8 1006.8 -
04/06:17pm NW 7 - - - - - - - - 29.7 1006.2 -
04/06:00pm NW 6 8 - - - - - - - 29.9 1005.9 -
04/05:30pm WNW 6 7 - - - - - - - 30.4 1005.6 -
04/05:17pm WNW 5 - - - - - - - - 30.7 1005.6 -
04/05:00pm WNW 5 6 - - - - - - - 31.1 1005.7 -
04/04:30pm WSW 7 8 - - - - - - - 30.9 1005.6 -
04/04:17pm W 5 - - - - - - - - 31.0 1005.5 -
04/04:00pm NW 4 7 - - - - - - - 31.8 1005.5 -
04/03:30pm NE 5 6 - - - - - - - 31.1 1005.5 -
04/03:17pm ENE 5 - - - - - - - - 31.1 1005.5 -
04/03:00pm ENE 5 7 - - - - - - - 30.6 1005.7 -
04/02:30pm E 5 7 - - - - - - - 31.9 1006.0 -
04/02:17pm E 6 - - - - - - - - 31.4 1006.2 -
04/02:00pm E 7 9 - - - - - - - 31.3 1006.4 -
04/01:30pm ESE 7 9 - - - - - - - 31.0 1006.7 -
04/01:17pm ESE 9 - - - - - - - - 31.4 1006.9 -
04/01:00pm ESE 8 11 - - - - - - - 31.3 1007.2 -
04/12:30pm SE 9 11 - - - - - - - 31.0 1007.6 -
04/12:17pm ESE 9 - - - - - - - - 30.8 1007.7 -
04/12:00pm ESE 9 11 - - - - - - - 31.5 1007.8 -
04/11:30am SE 9 11 - - - - - - - 31.3 1008.1 -
04/11:17am ESE 9 - - - - - - - - 30.6 1008.2 -
04/11:00am SE 9 12 - - - - - - - 31.6 1008.4 -
04/10:30am SE 10 14 - - - - - - - 30.9 1008.8 -
04/10:17am SE 11 - - - - - - - - 30.8 1009.0 -
04/10:00am SE 11 17 - - - - - - - 30.7 1009.1 -
04/09:30am ESE 10 13 - - - - - - - 30.5 1009.5 -
04/09:17am ESE 9 - - - - - - - - 30.6 1009.9 -
04/09:00am E 8 11 - - - - - - - 30.8 1010.3 -
04/08:30am ESE 8 11 - - - - - - - 30.6 1010.3 -
04/08:17am E 9 - - - - - - - - 30.4 1010.2 -
04/08:00am ESE 10 11 - - - - - - - 30.0 1010.1 -
04/07:30am ESE 9 11 - - - - - - - 30.1 1010.4 -
04/07:17am ESE 9 - - - - - - - - 29.9 1010.4 -
04/07:00am ESE 7 9 - - - - - - - 29.6 1010.5 -
04/06:30am SSE 5 6 - - - - - - - 29.1 1010.1 -
04/06:17am SE 5 - - - - - - - - 28.4 1010.3 -
04/06:00am SE 6 7 - - - - - - - 27.8 1010.3 -
04/05:30am CALM 0 2 - - - - - - - 28.3 1009.6 -
04/05:17am CALM 0 - - - - - - - - 28.2 1009.3 -
04/05:00am CALM 0 2 - - - - - - - 28.2 1009.1 -
04/04:30am CALM 0 2 - - - - - - - 28.1 1008.9 -
04/04:17am CALM 0 - - - - - - - - 28.0 1009.0 -
04/04:00am CALM 0 2 - - - - - - - 28.0 1008.9 -
04/03:30am CALM 0 1 - - - - - - - 27.9 1008.5 -
04/03:17am CALM 0 - - - - - - - - 28.0 1008.4 -
04/03:00am CALM 0 0 - - - - - - - 28.1 1008.2 -
04/02:30am CALM 0 0 - - - - - - - 28.2 1008.3 -
04/02:17am CALM 0 - - - - - - - - 28.3 1008.3 -
04/02:00am CALM 0 1 - - - - - - - 28.4 1008.2 -
04/01:30am CALM 0 2 - - - - - - - 28.3 1008.4 -
04/01:17am CALM 0 - - - - - - - - 28.1 1008.7 -
04/01:00am CALM 0 2 - - - - - - - 28.0 1008.9 -
04/12:30am CALM 0 2 - - - - - - - 28.1 1009.2 -
04/12:17am CALM 0 - - - - - - - - 28.1 1009.4 -
04/12:00am CALM 0 1 - - - - - - - 28.2 1009.4 -
 
Date/Time
WST
Wind Sea
Height
m
Swell Vis
km
Cloud Weather Temp
°C
Press
MSL
hPa
Rain since
9am
mm
Dir  Spd
kts
Gust
kts
Height
m
Period
s
Dir
03/11:30pm CALM 0 1 - - - - - - - 28.0 1009.7 -
03/11:17pm CALM 0 - - - - - - - - 28.1 1010.0 -
03/11:00pm CALM 0 1 - - - - - - - 28.2 1010.1 -
03/10:30pm CALM 0 2 - - - - - - - 28.2 1010.1 -
03/10:18pm CALM 0 - - - - - - - - 28.1 1010.0 -
03/10:00pm CALM 0 0 - - - - - - - 28.0 1010.1 -
03/09:30pm CALM 0 0 - - - - - - - 28.1 1010.1 -
03/09:17pm CALM 0 - - - - - - - - 28.1 1010.0 -
03/09:00pm CALM 0 1 - - - - - - - 28.1 1009.8 -
03/08:30pm CALM 0 3 - - - - - - - 28.3 1009.2 -
03/08:17pm CALM 0 - - - - - - - - 28.3 1009.0 -
03/08:00pm CALM 0 4 - - - - - - - 28.2 1009.0 -
03/07:30pm CALM 0 1 - - - - - - - 28.1 1008.9 -
03/07:17pm CALM 0 - - - - - - - - 28.3 1009.0 -
03/07:00pm CALM 0 1 - - - - - - - 28.1 1008.8 -
03/06:30pm CALM 0 2 - - - - - - - 28.1 1007.9 -
03/06:00pm CALM 0 1 - - - - - - - 28.5 1007.5 -
03/05:30pm CALM 0 3 - - - - - - - 28.9 1007.4 -
03/05:17pm ESE 2 - - - - - - - - 29.0 1007.3 -
03/05:00pm ESE 4 5 - - - - - - - 29.0 1007.2 -
03/04:30pm SE 1 3 - - - - - - - 28.9 1006.8 -
03/04:00pm ESE 1 5 - - - - - - - 28.9 1006.4 -
03/03:30pm E 7 8 - - - - - - - 29.1 1006.5 -
03/03:00pm NE 6 8 - - - - - - - 28.8 1006.7 -
03/02:30pm ESE 7 9 - - - - - - - 28.9 1006.9 -
03/02:17pm E 8 - - - - - - - - 28.9 1007.0 -
03/02:00pm E 7 9 - - - - - - - 28.8 1007.1 -
03/01:30pm ESE 9 11 - - - - - - - 28.6 1007.3 -
03/01:17pm ESE 10 - - - - - - - - 28.5 1007.6 -
03/01:00pm SE 11 14 - - - - - - - 28.1 1008.1 -
03/12:30pm SE 10 13 - - - - - - - 27.9 1008.3 -
03/12:17pm ESE 8 - - - - - - - - 27.9 1008.3 -
03/12:00pm E 9 13 - - - - - - - 27.9 1008.5 -
03/11:30am E 10 13 - - - - - - - 27.5 1009.0 -
03/11:17am E 11 - - - - - - - - 27.4 1009.3 -
03/11:00am ENE 11 14 - - - - - - - 26.9 1009.8 -
03/10:30am E 7 10 - - - - - - - 26.7 1010.6 -
03/10:17am E 6 - - - - - - - - 26.2 1010.5 -
03/10:00am ENE 14 18 - - - - - - - 25.8 1011.6 -
03/09:30am ENE 13 16 - - - - - - - 26.7 1011.4 -
03/09:17am E 12 - - - - - - - - 26.7 1011.3 -
03/09:00am ENE 13 17 - - - - - - - 27.8 1010.5 -
03/08:30am NE 11 14 - - - - - - - 28.3 1010.4 -
03/08:17am NNE 11 - - - - - - - - 28.4 1010.1 -
03/08:00am NE 9 12 - - - - - - - 28.5 1009.8 -
03/07:30am E 6 8 - - - - - - - 30.2 1009.6 -
03/07:17am E 7 - - - - - - - - 30.3 1009.6 -
03/07:00am E 7 9 - - - - - - - 30.2 1009.3 -
03/06:30am E 5 7 - - - - - - - 29.6 1009.1 -
03/06:17am E 5 - - - - - - - - 29.5 1009.1 -
03/06:00am S 5 6 - - - - - - - 29.1 1009.0 -
03/05:30am S 5 7 - - - - - - - 28.3 1008.6 -
03/05:17am S 6 - - - - - - - - 28.2 1008.6 -
03/05:00am S 6 7 - - - - - - - 28.3 1008.3 -
03/04:30am CALM 0 1 - - - - - - - 28.0 1007.9 -
03/04:17am SSE 1 - - - - - - - - 28.2 1008.0 -
03/04:00am SSE 1 3 - - - - - - - 28.4 1008.0 -
03/03:30am CALM 0 1 - - - - - - - 28.8 1007.9 -
03/03:17am NNE 1 - - - - - - - - 28.8 1007.9 -
03/03:00am CALM 0 1 - - - - - - - 28.8 1008.0 -
03/02:30am CALM 0 0 - - - - - - - 28.7 1008.0 -
03/02:17am CALM 0 - - - - - - - - 28.6 1008.0 -
03/02:00am CALM 0 2 - - - - - - - 28.6 1007.9 -
03/01:30am CALM 0 2 - - - - - - - 29.4 1008.0 -
03/01:17am CALM 0 - - - - - - - - 29.3 1008.1 -
03/01:00am CALM 0 0 - - - - - - - 29.3 1008.2 -
03/12:30am CALM 0 3 - - - - - - - 29.1 1008.6 -
03/12:17am CALM 0 - - - - - - - - 29.4 1008.6 -
03/12:00am CALM 0 2 - - - - - - - 29.3 1008.7 -
 
Date/Time
WST
Wind Sea
Height
m
Swell Vis
km
Cloud Weather Temp
°C
Press
MSL
hPa
Rain since
9am
mm
Dir  Spd
kts
Gust
kts
Height
m
Period
s
Dir
02/11:30pm WSW 1 3 - - - - - - - 29.5 1009.0 -
02/11:17pm WSW 1 - - - - - - - - 29.5 1009.1 -
02/11:00pm WSW 1 2 - - - - - - - 29.5 1009.2 -
02/10:30pm W 1 3 - - - - - - - 29.5 1009.1 -
02/10:17pm W 1 - - - - - - - - 29.5 1009.1 -
02/10:00pm W 1 3 - - - - - - - 29.4 1009.3 -
02/09:30pm WSW 1 2 - - - - - - - 29.4 1009.2 -
02/09:17pm CALM 0 - - - - - - - - 29.4 1009.2 -
02/09:00pm W 1 3 - - - - - - - 29.5 1009.3 -
02/08:30pm CALM 0 2 - - - - - - - 29.3 1008.8 -
02/08:17pm W 1 - - - - - - - - 29.3 1008.8 -
02/08:00pm CALM 0 3 - - - - - - - 29.3 1008.4 -
02/07:30pm CALM 0 2 - - - - - - - 29.4 1008.0 -
02/07:17pm CALM 0 - - - - - - - - 29.4 1007.7 -
02/07:00pm CALM 0 3 - - - - - - - 29.5 1007.5 -
02/06:30pm CALM 0 2 - - - - - - - 29.5 1006.9 -
02/06:17pm CALM 0 - - - - - - - - 29.8 1006.7 -
02/06:00pm CALM 0 2 - - - - - - - 30.0 1006.6 -
02/05:30pm CALM 0 3 - - - - - - - 30.2 1006.1 -
02/05:17pm NNW 1 - - - - - - - - 30.2 1006.1 -
02/05:00pm NNW 1 3 - - - - - - - 30.3 1006.0 -
02/04:30pm N 2 8 - - - - - - - 30.3 1006.1 -
02/04:17pm N 8 - - - - - - - - 30.4 1006.2 -
02/04:00pm N 8 8 - - - - - - - 30.6 1006.3 -
02/03:30pm N 7 9 - - - - - - - 30.7 1006.6 -
02/03:17pm NNE 7 - - - - - - - - 31.0 1006.5 -
02/03:00pm NNE 7 8 - - - - - - - 30.8 1006.6 -
02/02:30pm NNE 7 8 - - - - - - - 31.2 1006.9 -
02/02:17pm NNE 7 - - - - - - - - 31.1 1006.9 -
02/02:00pm NNE 7 9 - - - - - - - 31.2 1006.9 -
02/01:30pm NE 8 10 - - - - - - - 31.2 1007.2 -
02/01:17pm ENE 9 - - - - - - - - 31.4 1007.5 -
02/01:00pm NE 9 12 - - - - - - - 31.2 1008.0 -
02/12:30pm ENE 9 11 - - - - - - - 31.3 1008.2 -
02/12:17pm E 9 - - - - - - - - 31.4 1008.4 -
02/12:00pm E 10 12 - - - - - - - 31.1 1008.5 -
02/11:30am E 9 12 - - - - - - - 30.9 1008.5 -
02/11:17am ESE 11 - - - - - - - - 30.9 1008.4 -
02/11:00am ESE 9 11 - - - - - - - 31.3 1008.4 -

Other formats

Comma delimited format used in spreadsheet applications
http://www.bom.gov.au/fwo/IDW60701/IDW60701.94210.axf

JavaScript Object Notation format (JSON) in row-major order
http://www.bom.gov.au/fwo/IDW60701/IDW60701.94210.json

Data quality

Most of these data are generated automatically and are frequently updated. Quality checks on data are not normally performed. It is possible for incorrect values to appear. Refer to information at About Latest Weather Observations and please check the disclaimer before using these data.